sensor_id;sensor_type;location;lat;lon;timestamp;P1;durP1;ratioP1;P2;durP2;ratioP2
61499;SDS011;47361;49.996;19.918;2023-07-09T00:00:55;13.8;;;8.2;;
61499;SDS011;47361;49.996;19.918;2023-07-09T00:01:55;13.8;;;8.2;;
61499;SDS011;47361;49.996;19.918;2023-07-09T00:04:56;12.8;;;8.2;;
61499;SDS011;47361;49.996;19.918;2023-07-09T00:11:56;11.6;;;8.0;;
61499;SDS011;47361;49.996;19.918;2023-07-09T00:13:55;11.6;;;8.0;;
61499;SDS011;47361;49.996;19.918;2023-07-09T00:17:56;12.7;;;8.5;;
61499;SDS011;47361;49.996;19.918;2023-07-09T00:23:55;10.4;;;7.6;;
61499;SDS011;47361;49.996;19.918;2023-07-09T00:25:55;12.9;;;7.8;;
61499;SDS011;47361;49.996;19.918;2023-07-09T00:28:55;12.9;;;7.8;;
61499;SDS011;47361;49.996;19.918;2023-07-09T00:32:55;12.6;;;8.6;;
61499;SDS011;47361;49.996;19.918;2023-07-09T00:33:55;12.6;;;8.6;;
61499;SDS011;47361;49.996;19.918;2023-07-09T00:37:56;11.2;;;7.9;;
61499;SDS011;47361;49.996;19.918;2023-07-09T00:39:55;10.0;;;7.4;;
61499;SDS011;47361;49.996;19.918;2023-07-09T00:41:55;10.0;;;7.4;;
61499;SDS011;47361;49.996;19.918;2023-07-09T00:44:55;13.2;;;7.8;;
61499;SDS011;47361;49.996;19.918;2023-07-09T00:51:58;11.8;;;7.4;;
61499;SDS011;47361;49.996;19.918;2023-07-09T00:53:59;11.8;;;7.4;;
61499;SDS011;47361;49.996;19.918;2023-07-09T00:56:57;15.4;;;7.8;;
61499;SDS011;47361;49.996;19.918;2023-07-09T01:03:58;12.3;;;8.1;;
61499;SDS011;47361;49.996;19.918;2023-07-09T01:04:58;10.8;;;7.6;;
61499;SDS011;47361;49.996;19.918;2023-07-09T01:07:55;10.8;;;7.6;;
61499;SDS011;47361;49.996;19.918;2023-07-09T01:10:55;10.1;;;7.1;;
61499;SDS011;47361;49.996;19.918;2023-07-09T01:15:56;11.0;;;7.3;;
61499;SDS011;47361;49.996;19.918;2023-07-09T01:17:55;11.0;;;7.3;;
61499;SDS011;47361;49.996;19.918;2023-07-09T01:19:56;11.1;;;7.5;;
61499;SDS011;47361;49.996;19.918;2023-07-09T01:23:55;11.1;;;7.5;;
61499;SDS011;47361;49.996;19.918;2023-07-09T01:24:58;10.2;;;6.7;;
61499;SDS011;47361;49.996;19.918;2023-07-09T01:25:55;10.2;;;6.7;;
61499;SDS011;47361;49.996;19.918;2023-07-09T01:27:56;10.2;;;6.7;;
61499;SDS011;47361;49.996;19.918;2023-07-09T01:33:55;9.4;;;6.5;;
61499;SDS011;47361;49.996;19.918;2023-07-09T01:34:57;9.3;;;6.7;;
61499;SDS011;47361;49.996;19.918;2023-07-09T01:37:56;9.3;;;6.7;;
61499;SDS011;47361;49.996;19.918;2023-07-09T01:39:55;10.0;;;7.0;;
61499;SDS011;47361;49.996;19.918;2023-07-09T01:40:56;10.0;;;7.0;;
61499;SDS011;47361;49.996;19.918;2023-07-09T01:43:55;10.0;;;7.0;;
61499;SDS011;47361;49.996;19.918;2023-07-09T01:44:55;9.2;;;6.4;;
61499;SDS011;47361;49.996;19.918;2023-07-09T01:46:55;9.2;;;6.4;;
61499;SDS011;47361;49.996;19.918;2023-07-09T01:49:55;9.2;;;6.5;;
61499;SDS011;47361;49.996;19.918;2023-07-09T01:51:56;9.2;;;6.5;;
61499;SDS011;47361;49.996;19.918;2023-07-09T01:53:55;9.2;;;6.5;;
61499;SDS011;47361;49.996;19.918;2023-07-09T01:55:55;9.1;;;6.6;;
61499;SDS011;47361;49.996;19.918;2023-07-09T01:57:56;9.1;;;6.6;;
61499;SDS011;47361;49.996;19.918;2023-07-09T01:59:55;9.4;;;6.5;;
61499;SDS011;47361;49.996;19.918;2023-07-09T02:01:55;9.4;;;6.5;;
61499;SDS011;47361;49.996;19.918;2023-07-09T02:07:55;8.4;;;6.3;;
61499;SDS011;47361;49.996;19.918;2023-07-09T02:12:58;9.4;;;6.0;;
61499;SDS011;47361;49.996;19.918;2023-07-09T02:21:56;8.9;;;6.0;;
61499;SDS011;47361;49.996;19.918;2023-07-09T02:27:55;8.5;;;6.2;;
61499;SDS011;47361;49.996;19.918;2023-07-09T02:31:57;7.8;;;5.7;;
61499;SDS011;47361;49.996;19.918;2023-07-09T02:34:56;10.2;;;5.7;;
61499;SDS011;47361;49.996;19.918;2023-07-09T02:39:55;7.7;;;5.3;;
61499;SDS011;47361;49.996;19.918;2023-07-09T02:41:55;7.7;;;5.3;;
61499;SDS011;47361;49.996;19.918;2023-07-09T02:43:56;7.7;;;5.3;;
61499;SDS011;47361;49.996;19.918;2023-07-09T02:49:56;8.6;;;5.3;;
61499;SDS011;47361;49.996;19.918;2023-07-09T02:52:55;8.6;;;5.3;;
61499;SDS011;47361;49.996;19.918;2023-07-09T02:54:55;10.5;;;6.2;;
61499;SDS011;47361;49.996;19.918;2023-07-09T02:55:55;10.5;;;6.2;;
61499;SDS011;47361;49.996;19.918;2023-07-09T02:57:55;10.5;;;6.2;;
61499;SDS011;47361;49.996;19.918;2023-07-09T02:58:55;10.5;;;6.2;;
61499;SDS011;47361;49.996;19.918;2023-07-09T03:02:56;6.7;;;4.8;;
61499;SDS011;47361;49.996;19.918;2023-07-09T03:03:56;6.7;;;4.8;;
61499;SDS011;47361;49.996;19.918;2023-07-09T03:04:55;7.1;;;4.6;;
61499;SDS011;47361;49.996;19.918;2023-07-09T03:05:55;7.1;;;4.6;;
61499;SDS011;47361;49.996;19.918;2023-07-09T03:08:55;7.1;;;4.6;;
61499;SDS011;47361;49.996;19.918;2023-07-09T03:09:55;6.4;;;4.6;;
61499;SDS011;47361;49.996;19.918;2023-07-09T03:14:56;7.7;;;5.5;;
61499;SDS011;47361;49.996;19.918;2023-07-09T03:17:55;7.7;;;5.5;;
61499;SDS011;47361;49.996;19.918;2023-07-09T03:19:56;5.9;;;4.6;;
61499;SDS011;47361;49.996;19.918;2023-07-09T03:21:55;5.9;;;4.6;;
61499;SDS011;47361;49.996;19.918;2023-07-09T03:24:55;7.5;;;5.0;;
61499;SDS011;47361;49.996;19.918;2023-07-09T03:25:56;7.5;;;5.0;;
61499;SDS011;47361;49.996;19.918;2023-07-09T03:34:56;7.6;;;4.8;;
61499;SDS011;47361;49.996;19.918;2023-07-09T03:36:56;7.6;;;4.8;;
61499;SDS011;47361;49.996;19.918;2023-07-09T03:39:56;6.7;;;4.3;;
61499;SDS011;47361;49.996;19.918;2023-07-09T03:44:55;6.9;;;4.6;;
61499;SDS011;47361;49.996;19.918;2023-07-09T03:49:56;8.8;;;5.4;;
61499;SDS011;47361;49.996;19.918;2023-07-09T03:51:55;8.8;;;5.4;;
61499;SDS011;47361;49.996;19.918;2023-07-09T03:52:55;8.8;;;5.4;;
61499;SDS011;47361;49.996;19.918;2023-07-09T03:54:55;9.1;;;5.5;;
61499;SDS011;47361;49.996;19.918;2023-07-09T03:58:56;9.1;;;5.5;;
61499;SDS011;47361;49.996;19.918;2023-07-09T03:59:56;9.7;;;5.8;;
61499;SDS011;47361;49.996;19.918;2023-07-09T04:03:56;9.7;;;5.8;;
61499;SDS011;47361;49.996;19.918;2023-07-09T04:07:56;6.9;;;5.2;;
61499;SDS011;47361;49.996;19.918;2023-07-09T04:08:55;6.9;;;5.2;;
61499;SDS011;47361;49.996;19.918;2023-07-09T04:14:56;8.9;;;6.5;;
61499;SDS011;47361;49.996;19.918;2023-07-09T04:20:55;9.3;;;6.6;;
61499;SDS011;47361;49.996;19.918;2023-07-09T04:21:55;9.3;;;6.6;;
61499;SDS011;47361;49.996;19.918;2023-07-09T04:24:55;8.3;;;5.8;;
61499;SDS011;47361;49.996;19.918;2023-07-09T04:25:56;8.3;;;5.8;;
61499;SDS011;47361;49.996;19.918;2023-07-09T04:29:56;7.6;;;5.8;;
61499;SDS011;47361;49.996;19.918;2023-07-09T04:32:57;7.6;;;5.8;;
61499;SDS011;47361;49.996;19.918;2023-07-09T04:34:56;9.5;;;6.2;;
61499;SDS011;47361;49.996;19.918;2023-07-09T04:37:56;9.5;;;6.2;;
61499;SDS011;47361;49.996;19.918;2023-07-09T04:39:56;9.0;;;5.3;;
61499;SDS011;47361;49.996;19.918;2023-07-09T04:42:56;9.0;;;5.3;;
61499;SDS011;47361;49.996;19.918;2023-07-09T04:44:56;7.6;;;5.3;;
61499;SDS011;47361;49.996;19.918;2023-07-09T04:45:56;7.6;;;5.3;;
61499;SDS011;47361;49.996;19.918;2023-07-09T04:47:56;7.6;;;5.3;;
61499;SDS011;47361;49.996;19.918;2023-07-09T04:48:56;9.0;;;5.9;;
61499;SDS011;47361;49.996;19.918;2023-07-09T04:49:56;9.0;;;5.9;;
61499;SDS011;47361;49.996;19.918;2023-07-09T04:51:56;9.0;;;5.9;;
61499;SDS011;47361;49.996;19.918;2023-07-09T04:53:56;9.5;;;5.4;;
61499;SDS011;47361;49.996;19.918;2023-07-09T04:54:56;9.5;;;5.4;;
61499;SDS011;47361;49.996;19.918;2023-07-09T04:57:56;9.5;;;5.4;;
61499;SDS011;47361;49.996;19.918;2023-07-09T04:58:56;8.0;;;5.0;;
61499;SDS011;47361;49.996;19.918;2023-07-09T04:59:56;8.0;;;5.0;;
61499;SDS011;47361;49.996;19.918;2023-07-09T05:01:56;8.0;;;5.0;;
61499;SDS011;47361;49.996;19.918;2023-07-09T05:03:56;7.9;;;5.2;;
61499;SDS011;47361;49.996;19.918;2023-07-09T05:04:56;7.9;;;5.2;;
61499;SDS011;47361;49.996;19.918;2023-07-09T05:06:56;7.9;;;5.2;;
61499;SDS011;47361;49.996;19.918;2023-07-09T05:08:56;6.1;;;4.7;;
61499;SDS011;47361;49.996;19.918;2023-07-09T05:09:56;6.1;;;4.7;;
61499;SDS011;47361;49.996;19.918;2023-07-09T05:13:56;7.5;;;5.0;;
61499;SDS011;47361;49.996;19.918;2023-07-09T05:14:56;7.5;;;5.0;;
61499;SDS011;47361;49.996;19.918;2023-07-09T05:18:56;7.8;;;5.2;;
61499;SDS011;47361;49.996;19.918;2023-07-09T05:21:56;7.8;;;5.2;;
61499;SDS011;47361;49.996;19.918;2023-07-09T05:23:56;8.1;;;5.2;;
61499;SDS011;47361;49.996;19.918;2023-07-09T05:25:56;8.1;;;5.2;;
61499;SDS011;47361;49.996;19.918;2023-07-09T05:27:56;8.1;;;5.2;;
61499;SDS011;47361;49.996;19.918;2023-07-09T05:29:56;6.6;;;4.9;;
61499;SDS011;47361;49.996;19.918;2023-07-09T05:32:56;6.6;;;4.9;;
61499;SDS011;47361;49.996;19.918;2023-07-09T05:33:56;7.3;;;4.7;;
61499;SDS011;47361;49.996;19.918;2023-07-09T05:34:56;7.3;;;4.7;;
61499;SDS011;47361;49.996;19.918;2023-07-09T05:36:56;7.3;;;4.7;;
61499;SDS011;47361;49.996;19.918;2023-07-09T05:38:56;5.8;;;4.7;;
61499;SDS011;47361;49.996;19.918;2023-07-09T05:39:56;5.8;;;4.7;;
61499;SDS011;47361;49.996;19.918;2023-07-09T05:41:00;5.8;;;4.7;;
61499;SDS011;47361;49.996;19.918;2023-07-09T05:43:56;6.8;;;4.7;;
61499;SDS011;47361;49.996;19.918;2023-07-09T05:45:56;6.8;;;4.7;;
61499;SDS011;47361;49.996;19.918;2023-07-09T05:48:56;9.3;;;4.5;;
61499;SDS011;47361;49.996;19.918;2023-07-09T05:50:56;9.3;;;4.5;;
61499;SDS011;47361;49.996;19.918;2023-07-09T05:53:56;6.6;;;4.3;;
61499;SDS011;47361;49.996;19.918;2023-07-09T05:55:56;6.6;;;4.3;;
61499;SDS011;47361;49.996;19.918;2023-07-09T05:58:56;5.8;;;4.4;;
61499;SDS011;47361;49.996;19.918;2023-07-09T05:59:56;5.8;;;4.4;;
61499;SDS011;47361;49.996;19.918;2023-07-09T06:01:56;5.8;;;4.4;;
61499;SDS011;47361;49.996;19.918;2023-07-09T06:03:56;4.8;;;3.3;;
61499;SDS011;47361;49.996;19.918;2023-07-09T06:04:56;4.8;;;3.3;;
61499;SDS011;47361;49.996;19.918;2023-07-09T06:05:57;4.8;;;3.3;;
61499;SDS011;47361;49.996;19.918;2023-07-09T06:06:56;4.8;;;3.3;;
61499;SDS011;47361;49.996;19.918;2023-07-09T06:09:56;4.8;;;3.1;;
61499;SDS011;47361;49.996;19.918;2023-07-09T06:11:56;4.8;;;3.1;;
61499;SDS011;47361;49.996;19.918;2023-07-09T06:13:56;5.3;;;3.6;;
61499;SDS011;47361;49.996;19.918;2023-07-09T06:14:56;5.3;;;3.6;;
61499;SDS011;47361;49.996;19.918;2023-07-09T06:17:56;5.3;;;3.6;;
61499;SDS011;47361;49.996;19.918;2023-07-09T06:20:57;4.2;;;3.3;;
61499;SDS011;47361;49.996;19.918;2023-07-09T06:23:56;4.3;;;3.5;;
61499;SDS011;47361;49.996;19.918;2023-07-09T06:24:56;4.3;;;3.5;;
61499;SDS011;47361;49.996;19.918;2023-07-09T06:28:56;4.7;;;3.6;;
61499;SDS011;47361;49.996;19.918;2023-07-09T06:30:56;4.7;;;3.6;;
61499;SDS011;47361;49.996;19.918;2023-07-09T06:34:56;4.8;;;3.2;;
61499;SDS011;47361;49.996;19.918;2023-07-09T06:37:56;4.8;;;3.2;;
61499;SDS011;47361;49.996;19.918;2023-07-09T06:38:56;4.9;;;3.6;;
61499;SDS011;47361;49.996;19.918;2023-07-09T06:39:56;4.9;;;3.6;;
61499;SDS011;47361;49.996;19.918;2023-07-09T06:41:56;4.9;;;3.6;;
61499;SDS011;47361;49.996;19.918;2023-07-09T06:43:56;5.2;;;3.7;;
61499;SDS011;47361;49.996;19.918;2023-07-09T06:44:56;5.2;;;3.7;;
61499;SDS011;47361;49.996;19.918;2023-07-09T06:46:56;5.2;;;3.7;;
61499;SDS011;47361;49.996;19.918;2023-07-09T06:48:56;4.6;;;3.7;;
61499;SDS011;47361;49.996;19.918;2023-07-09T06:53:56;4.0;;;3.3;;
61499;SDS011;47361;49.996;19.918;2023-07-09T06:55:56;4.0;;;3.3;;
61499;SDS011;47361;49.996;19.918;2023-07-09T06:58:56;5.9;;;3.8;;
61499;SDS011;47361;49.996;19.918;2023-07-09T07:03:56;4.2;;;3.3;;
61499;SDS011;47361;49.996;19.918;2023-07-09T07:04:56;4.2;;;3.3;;
61499;SDS011;47361;49.996;19.918;2023-07-09T07:07:56;4.2;;;3.3;;
61499;SDS011;47361;49.996;19.918;2023-07-09T07:08:56;5.4;;;4.0;;
61499;SDS011;47361;49.996;19.918;2023-07-09T07:12:56;5.4;;;4.0;;
61499;SDS011;47361;49.996;19.918;2023-07-09T07:17:56;4.2;;;3.3;;
61499;SDS011;47361;49.996;19.918;2023-07-09T07:19:56;4.4;;;3.3;;
61499;SDS011;47361;49.996;19.918;2023-07-09T07:21:56;4.4;;;3.3;;
61499;SDS011;47361;49.996;19.918;2023-07-09T07:23:56;4.5;;;3.2;;
61499;SDS011;47361;49.996;19.918;2023-07-09T07:24:56;4.5;;;3.2;;
61499;SDS011;47361;49.996;19.918;2023-07-09T07:26:56;4.5;;;3.2;;
61499;SDS011;47361;49.996;19.918;2023-07-09T07:28:56;4.4;;;3.2;;
61499;SDS011;47361;49.996;19.918;2023-07-09T07:29:56;4.4;;;3.2;;
61499;SDS011;47361;49.996;19.918;2023-07-09T07:31:57;4.4;;;3.2;;
61499;SDS011;47361;49.996;19.918;2023-07-09T07:35:56;4.1;;;3.2;;
61499;SDS011;47361;49.996;19.918;2023-07-09T07:38:56;5.9;;;3.4;;
61499;SDS011;47361;49.996;19.918;2023-07-09T07:41:56;5.9;;;3.4;;
61499;SDS011;47361;49.996;19.918;2023-07-09T07:43:56;3.3;;;3.0;;
61499;SDS011;47361;49.996;19.918;2023-07-09T07:45:56;3.3;;;3.0;;
61499;SDS011;47361;49.996;19.918;2023-07-09T07:49:56;4.1;;;3.3;;
61499;SDS011;47361;49.996;19.918;2023-07-09T07:52:56;4.1;;;3.3;;
61499;SDS011;47361;49.996;19.918;2023-07-09T07:53:56;3.6;;;3.3;;
61499;SDS011;47361;49.996;19.918;2023-07-09T07:55:56;3.6;;;3.3;;
61499;SDS011;47361;49.996;19.918;2023-07-09T07:56:56;3.6;;;3.3;;
61499;SDS011;47361;49.996;19.918;2023-07-09T07:57:56;3.6;;;3.3;;
61499;SDS011;47361;49.996;19.918;2023-07-09T07:58:56;5.5;;;3.5;;
61499;SDS011;47361;49.996;19.918;2023-07-09T08:02:56;5.5;;;3.5;;
61499;SDS011;47361;49.996;19.918;2023-07-09T08:03:56;3.5;;;3.2;;
61499;SDS011;47361;49.996;19.918;2023-07-09T08:05:56;3.5;;;3.2;;
61499;SDS011;47361;49.996;19.918;2023-07-09T08:08:56;4.5;;;3.4;;
61499;SDS011;47361;49.996;19.918;2023-07-09T08:11:56;4.5;;;3.4;;
61499;SDS011;47361;49.996;19.918;2023-07-09T08:13:56;4.7;;;3.2;;
61499;SDS011;47361;49.996;19.918;2023-07-09T08:14:56;4.7;;;3.2;;
61499;SDS011;47361;49.996;19.918;2023-07-09T08:17:56;4.7;;;3.2;;
61499;SDS011;47361;49.996;19.918;2023-07-09T08:18:56;4.5;;;3.3;;
61499;SDS011;47361;49.996;19.918;2023-07-09T08:20:56;4.5;;;3.3;;
61499;SDS011;47361;49.996;19.918;2023-07-09T08:22:56;4.5;;;3.3;;
61499;SDS011;47361;49.996;19.918;2023-07-09T08:23:56;4.3;;;3.3;;
61499;SDS011;47361;49.996;19.918;2023-07-09T08:28:56;3.9;;;3.2;;
61499;SDS011;47361;49.996;19.918;2023-07-09T08:32:56;3.9;;;3.2;;
61499;SDS011;47361;49.996;19.918;2023-07-09T08:33:56;5.8;;;3.3;;
61499;SDS011;47361;49.996;19.918;2023-07-09T08:37:56;5.8;;;3.3;;
61499;SDS011;47361;49.996;19.918;2023-07-09T08:38:56;6.0;;;3.1;;
61499;SDS011;47361;49.996;19.918;2023-07-09T08:44:06;3.8;;;2.8;;
61499;SDS011;47361;49.996;19.918;2023-07-09T08:45:07;3.8;;;2.8;;
61499;SDS011;47361;49.996;19.918;2023-07-09T08:47:00;3.8;;;2.8;;
61499;SDS011;47361;49.996;19.918;2023-07-09T08:49:59;6.6;;;3.0;;
61499;SDS011;47361;49.996;19.918;2023-07-09T08:51:57;6.6;;;3.0;;
61499;SDS011;47361;49.996;19.918;2023-07-09T08:53:57;3.5;;;3.2;;
61499;SDS011;47361;49.996;19.918;2023-07-09T08:58:59;5.1;;;3.2;;
61499;SDS011;47361;49.996;19.918;2023-07-09T09:00:57;5.1;;;3.2;;
61499;SDS011;47361;49.996;19.918;2023-07-09T09:03:59;5.0;;;2.8;;
61499;SDS011;47361;49.996;19.918;2023-07-09T09:05:56;5.0;;;2.8;;
61499;SDS011;47361;49.996;19.918;2023-07-09T09:07:02;5.0;;;2.8;;
61499;SDS011;47361;49.996;19.918;2023-07-09T09:09:05;4.8;;;2.7;;
61499;SDS011;47361;49.996;19.918;2023-07-09T09:09:58;4.8;;;2.7;;
61499;SDS011;47361;49.996;19.918;2023-07-09T09:11:59;4.8;;;2.7;;
61499;SDS011;47361;49.996;19.918;2023-07-09T09:14:00;5.2;;;2.8;;
61499;SDS011;47361;49.996;19.918;2023-07-09T09:14:58;5.2;;;2.8;;
61499;SDS011;47361;49.996;19.918;2023-07-09T09:16:02;5.2;;;2.8;;
61499;SDS011;47361;49.996;19.918;2023-07-09T09:18:13;5.2;;;2.8;;
61499;SDS011;47361;49.996;19.918;2023-07-09T09:27:56;5.0;;;2.9;;
61499;SDS011;47361;49.996;19.918;2023-07-09T09:28:56;5.0;;;3.3;;
61499;SDS011;47361;49.996;19.918;2023-07-09T09:32:57;5.0;;;3.3;;
61499;SDS011;47361;49.996;19.918;2023-07-09T09:33:56;3.4;;;3.1;;
61499;SDS011;47361;49.996;19.918;2023-07-09T09:34:56;3.4;;;3.1;;
61499;SDS011;47361;49.996;19.918;2023-07-09T09:39:02;4.0;;;3.0;;
61499;SDS011;47361;49.996;19.918;2023-07-09T09:42:57;4.0;;;3.0;;
61499;SDS011;47361;49.996;19.918;2023-07-09T09:45:58;4.4;;;3.4;;
61499;SDS011;47361;49.996;19.918;2023-07-09T09:48:59;5.2;;;3.6;;
61499;SDS011;47361;49.996;19.918;2023-07-09T09:53:58;4.1;;;3.3;;
61499;SDS011;47361;49.996;19.918;2023-07-09T09:55:02;4.1;;;3.3;;
61499;SDS011;47361;49.996;19.918;2023-07-09T09:55:56;4.1;;;3.3;;
61499;SDS011;47361;49.996;19.918;2023-07-09T09:58:57;4.0;;;3.1;;
61499;SDS011;47361;49.996;19.918;2023-07-09T10:00:57;4.0;;;3.1;;
61499;SDS011;47361;49.996;19.918;2023-07-09T10:01:57;4.0;;;3.1;;
61499;SDS011;47361;49.996;19.918;2023-07-09T10:02:57;4.0;;;3.1;;
61499;SDS011;47361;49.996;19.918;2023-07-09T10:03:57;4.1;;;3.0;;
61499;SDS011;47361;49.996;19.918;2023-07-09T10:05:58;4.1;;;3.0;;
61499;SDS011;47361;49.996;19.918;2023-07-09T10:06:58;4.1;;;3.0;;
61499;SDS011;47361;49.996;19.918;2023-07-09T10:07:59;4.1;;;3.0;;
61499;SDS011;47361;49.996;19.918;2023-07-09T10:11:03;4.9;;;3.1;;
61499;SDS011;47361;49.996;19.918;2023-07-09T10:13:01;4.9;;;3.1;;
61499;SDS011;47361;49.996;19.918;2023-07-09T10:14:00;3.6;;;2.8;;
61499;SDS011;47361;49.996;19.918;2023-07-09T10:14:59;3.6;;;2.8;;
61499;SDS011;47361;49.996;19.918;2023-07-09T10:18:02;3.6;;;2.8;;
61499;SDS011;47361;49.996;19.918;2023-07-09T10:19:57;3.9;;;3.1;;
61499;SDS011;47361;49.996;19.918;2023-07-09T10:23:00;3.9;;;3.1;;
61499;SDS011;47361;49.996;19.918;2023-07-09T10:24:02;4.6;;;3.1;;
61499;SDS011;47361;49.996;19.918;2023-07-09T10:25:01;4.6;;;3.1;;
61499;SDS011;47361;49.996;19.918;2023-07-09T10:29:04;3.2;;;2.9;;
61499;SDS011;47361;49.996;19.918;2023-07-09T10:32:04;3.2;;;2.9;;
61499;SDS011;47361;49.996;19.918;2023-07-09T10:33:06;3.2;;;2.9;;
61499;SDS011;47361;49.996;19.918;2023-07-09T10:35:02;3.8;;;2.9;;
61499;SDS011;47361;49.996;19.918;2023-07-09T10:37:08;3.8;;;2.9;;
61499;SDS011;47361;49.996;19.918;2023-07-09T10:39:00;3.7;;;2.8;;
61499;SDS011;47361;49.996;19.918;2023-07-09T10:40:57;3.7;;;2.8;;
61499;SDS011;47361;49.996;19.918;2023-07-09T10:41:58;3.7;;;2.8;;
61499;SDS011;47361;49.996;19.918;2023-07-09T10:44:00;4.9;;;3.0;;
61499;SDS011;47361;49.996;19.918;2023-07-09T10:44:59;4.9;;;3.0;;
61499;SDS011;47361;49.996;19.918;2023-07-09T10:46:59;4.9;;;3.0;;
61499;SDS011;47361;49.996;19.918;2023-07-09T10:47:59;4.9;;;3.0;;
61499;SDS011;47361;49.996;19.918;2023-07-09T10:49:57;4.7;;;3.1;;
61499;SDS011;47361;49.996;19.918;2023-07-09T10:52:04;4.7;;;3.1;;
61499;SDS011;47361;49.996;19.918;2023-07-09T10:53:58;3.8;;;3.1;;
61499;SDS011;47361;49.996;19.918;2023-07-09T10:57:59;3.8;;;3.1;;
61499;SDS011;47361;49.996;19.918;2023-07-09T11:02:01;5.1;;;3.0;;
61499;SDS011;47361;49.996;19.918;2023-07-09T11:04:58;6.3;;;3.3;;
61499;SDS011;47361;49.996;19.918;2023-07-09T11:05:56;6.3;;;3.3;;
61499;SDS011;47361;49.996;19.918;2023-07-09T11:06:59;6.3;;;3.3;;
61499;SDS011;47361;49.996;19.918;2023-07-09T11:08:01;6.3;;;3.3;;
61499;SDS011;47361;49.996;19.918;2023-07-09T11:08:57;3.1;;;2.8;;
61499;SDS011;47361;49.996;19.918;2023-07-09T11:10:59;3.1;;;2.8;;
61499;SDS011;47361;49.996;19.918;2023-07-09T11:11:58;3.1;;;2.8;;
61499;SDS011;47361;49.996;19.918;2023-07-09T11:12:59;3.1;;;2.8;;
61499;SDS011;47361;49.996;19.918;2023-07-09T11:13:59;4.7;;;3.7;;
61499;SDS011;47361;49.996;19.918;2023-07-09T11:15:56;4.7;;;3.7;;
61499;SDS011;47361;49.996;19.918;2023-07-09T11:17:57;4.7;;;3.7;;
61499;SDS011;47361;49.996;19.918;2023-07-09T11:18:59;3.7;;;3.4;;
61499;SDS011;47361;49.996;19.918;2023-07-09T11:19:58;3.7;;;3.4;;
61499;SDS011;47361;49.996;19.918;2023-07-09T11:21:59;3.7;;;3.4;;
61499;SDS011;47361;49.996;19.918;2023-07-09T11:23:02;4.4;;;3.0;;
61499;SDS011;47361;49.996;19.918;2023-07-09T11:23:57;4.4;;;3.0;;
61499;SDS011;47361;49.996;19.918;2023-07-09T11:25:06;4.4;;;3.0;;
61499;SDS011;47361;49.996;19.918;2023-07-09T11:26:11;4.4;;;3.0;;
61499;SDS011;47361;49.996;19.918;2023-07-09T11:26:56;4.4;;;3.0;;
61499;SDS011;47361;49.996;19.918;2023-07-09T11:28:03;3.4;;;3.1;;
61499;SDS011;47361;49.996;19.918;2023-07-09T11:29:58;3.4;;;3.1;;
61499;SDS011;47361;49.996;19.918;2023-07-09T11:32:07;3.4;;;3.1;;
61499;SDS011;47361;49.996;19.918;2023-07-09T11:32:58;3.4;;;3.1;;
61499;SDS011;47361;49.996;19.918;2023-07-09T11:34:01;3.5;;;3.2;;
61499;SDS011;47361;49.996;19.918;2023-07-09T11:35:06;3.5;;;3.2;;
61499;SDS011;47361;49.996;19.918;2023-07-09T11:38:07;3.6;;;3.2;;
61499;SDS011;47361;49.996;19.918;2023-07-09T11:38:57;3.6;;;3.2;;
61499;SDS011;47361;49.996;19.918;2023-07-09T11:40:56;3.6;;;3.2;;
61499;SDS011;47361;49.996;19.918;2023-07-09T11:41:56;3.6;;;3.2;;
61499;SDS011;47361;49.996;19.918;2023-07-09T11:44:05;3.5;;;3.2;;
61499;SDS011;47361;49.996;19.918;2023-07-09T11:45:02;3.5;;;3.2;;
61499;SDS011;47361;49.996;19.918;2023-07-09T11:48:02;3.3;;;3.0;;
61499;SDS011;47361;49.996;19.918;2023-07-09T11:48:57;3.3;;;3.0;;
61499;SDS011;47361;49.996;19.918;2023-07-09T11:49:57;3.3;;;3.0;;
61499;SDS011;47361;49.996;19.918;2023-07-09T11:52:00;3.3;;;3.0;;
61499;SDS011;47361;49.996;19.918;2023-07-09T11:52:58;5.6;;;3.2;;
61499;SDS011;47361;49.996;19.918;2023-07-09T11:55:56;5.6;;;3.2;;
61499;SDS011;47361;49.996;19.918;2023-07-09T11:56:58;5.6;;;3.2;;
61499;SDS011;47361;49.996;19.918;2023-07-09T11:59:59;5.3;;;3.3;;
61499;SDS011;47361;49.996;19.918;2023-07-09T12:08:56;5.3;;;3.9;;
61499;SDS011;47361;49.996;19.918;2023-07-09T12:10:56;5.3;;;3.9;;
61499;SDS011;47361;49.996;19.918;2023-07-09T12:11:56;5.3;;;3.9;;
61499;SDS011;47361;49.996;19.918;2023-07-09T12:12:57;4.7;;;3.2;;
61499;SDS011;47361;49.996;19.918;2023-07-09T12:14:01;4.7;;;3.2;;
61499;SDS011;47361;49.996;19.918;2023-07-09T12:15:56;4.7;;;3.2;;
61499;SDS011;47361;49.996;19.918;2023-07-09T12:16:56;4.7;;;3.2;;
61499;SDS011;47361;49.996;19.918;2023-07-09T12:17:58;4.0;;;3.1;;
61499;SDS011;47361;49.996;19.918;2023-07-09T12:18:58;4.0;;;3.1;;
61499;SDS011;47361;49.996;19.918;2023-07-09T12:19:56;4.0;;;3.1;;
61499;SDS011;47361;49.996;19.918;2023-07-09T12:20:56;4.0;;;3.1;;
61499;SDS011;47361;49.996;19.918;2023-07-09T12:21:58;4.0;;;3.1;;
61499;SDS011;47361;49.996;19.918;2023-07-09T12:22:56;3.3;;;3.0;;
61499;SDS011;47361;49.996;19.918;2023-07-09T12:23:56;3.3;;;3.0;;
61499;SDS011;47361;49.996;19.918;2023-07-09T12:24:56;3.3;;;3.0;;
61499;SDS011;47361;49.996;19.918;2023-07-09T12:26:00;3.3;;;3.0;;
61499;SDS011;47361;49.996;19.918;2023-07-09T12:28:58;3.6;;;3.0;;
61499;SDS011;47361;49.996;19.918;2023-07-09T12:29:57;3.6;;;3.0;;
61499;SDS011;47361;49.996;19.918;2023-07-09T12:30:56;3.6;;;3.0;;
61499;SDS011;47361;49.996;19.918;2023-07-09T12:32:57;4.9;;;3.3;;
61499;SDS011;47361;49.996;19.918;2023-07-09T12:33:58;4.9;;;3.3;;
61499;SDS011;47361;49.996;19.918;2023-07-09T12:35:58;4.9;;;3.3;;
61499;SDS011;47361;49.996;19.918;2023-07-09T12:37:56;4.9;;;3.2;;
61499;SDS011;47361;49.996;19.918;2023-07-09T12:41:00;4.9;;;3.2;;
61499;SDS011;47361;49.996;19.918;2023-07-09T12:41:59;4.9;;;3.2;;
61499;SDS011;47361;49.996;19.918;2023-07-09T12:43:56;3.7;;;2.8;;
61499;SDS011;47361;49.996;19.918;2023-07-09T12:46:56;3.7;;;2.8;;
61499;SDS011;47361;49.996;19.918;2023-07-09T12:47:56;3.2;;;2.9;;
61499;SDS011;47361;49.996;19.918;2023-07-09T12:50:57;3.2;;;2.9;;
61499;SDS011;47361;49.996;19.918;2023-07-09T12:51:57;3.2;;;2.9;;
61499;SDS011;47361;49.996;19.918;2023-07-09T12:53:01;5.3;;;3.5;;
61499;SDS011;47361;49.996;19.918;2023-07-09T12:54:11;5.3;;;3.5;;
61499;SDS011;47361;49.996;19.918;2023-07-09T12:54:57;5.3;;;3.5;;
61499;SDS011;47361;49.996;19.918;2023-07-09T12:56:59;5.3;;;3.5;;
61499;SDS011;47361;49.996;19.918;2023-07-09T12:57:57;3.6;;;3.2;;
61499;SDS011;47361;49.996;19.918;2023-07-09T12:59:56;3.6;;;3.2;;
61499;SDS011;47361;49.996;19.918;2023-07-09T13:00:57;3.6;;;3.2;;
61499;SDS011;47361;49.996;19.918;2023-07-09T13:02:57;3.1;;;2.8;;
61499;SDS011;47361;49.996;19.918;2023-07-09T13:03:56;3.1;;;2.8;;
61499;SDS011;47361;49.996;19.918;2023-07-09T13:05:01;3.1;;;2.8;;
61499;SDS011;47361;49.996;19.918;2023-07-09T13:05:58;3.1;;;2.8;;
61499;SDS011;47361;49.996;19.918;2023-07-09T13:07:59;4.2;;;3.3;;
61499;SDS011;47361;49.996;19.918;2023-07-09T13:08:58;4.2;;;3.3;;
61499;SDS011;47361;49.996;19.918;2023-07-09T13:10:56;4.2;;;3.3;;
61499;SDS011;47361;49.996;19.918;2023-07-09T13:11:57;4.2;;;3.3;;
61499;SDS011;47361;49.996;19.918;2023-07-09T13:13:57;4.6;;;3.4;;
61499;SDS011;47361;49.996;19.918;2023-07-09T13:14:56;4.6;;;3.4;;
61499;SDS011;47361;49.996;19.918;2023-07-09T13:17:02;4.6;;;3.4;;
61499;SDS011;47361;49.996;19.918;2023-07-09T13:18:56;4.3;;;3.3;;
61499;SDS011;47361;49.996;19.918;2023-07-09T13:19:56;4.3;;;3.3;;
61499;SDS011;47361;49.996;19.918;2023-07-09T13:22:57;5.8;;;3.4;;
61499;SDS011;47361;49.996;19.918;2023-07-09T13:23:56;5.8;;;3.4;;
61499;SDS011;47361;49.996;19.918;2023-07-09T13:24:56;5.8;;;3.4;;
61499;SDS011;47361;49.996;19.918;2023-07-09T13:25:56;5.8;;;3.4;;
61499;SDS011;47361;49.996;19.918;2023-07-09T13:26:56;5.8;;;3.4;;
61499;SDS011;47361;49.996;19.918;2023-07-09T13:27:56;5.1;;;3.4;;
61499;SDS011;47361;49.996;19.918;2023-07-09T13:30:57;5.1;;;3.4;;
61499;SDS011;47361;49.996;19.918;2023-07-09T13:31:56;5.1;;;3.4;;
61499;SDS011;47361;49.996;19.918;2023-07-09T13:33:58;3.9;;;3.2;;